createdAt,value
2023-05-09T00:00:00.697Z,3.30
2023-05-09T00:01:10.592Z,3.30
2023-05-09T00:02:00.692Z,3.30
2023-05-09T00:03:00.721Z,3.30
2023-05-09T00:04:00.787Z,3.30
2023-05-09T00:05:00.702Z,3.30
2023-05-09T00:06:00.803Z,3.30
2023-05-09T00:07:00.695Z,3.30
2023-05-09T00:08:00.691Z,3.30
2023-05-09T00:09:00.692Z,3.30
2023-05-09T00:10:00.927Z,3.30
2023-05-09T00:11:01.298Z,3.30
2023-05-09T00:12:00.706Z,3.30
2023-05-09T00:13:00.689Z,3.30
2023-05-09T00:14:00.796Z,3.30
2023-05-09T00:15:00.679Z,3.30
2023-05-09T00:16:00.677Z,3.30
2023-05-09T00:17:00.674Z,3.30
2023-05-09T00:18:00.779Z,3.30
2023-05-09T00:19:00.724Z,3.30
2023-05-09T00:20:01.046Z,3.30
2023-05-09T00:21:00.691Z,3.30
2023-05-09T00:22:00.713Z,3.30
2023-05-09T00:23:00.826Z,3.30
2023-05-09T00:24:00.670Z,3.30
2023-05-09T00:25:00.680Z,3.30
2023-05-09T00:26:00.706Z,3.30
2023-05-09T00:27:00.687Z,3.30
2023-05-09T00:28:00.706Z,3.30
2023-05-09T00:29:00.691Z,3.00
2023-05-09T00:30:00.764Z,3.00
2023-05-09T00:31:00.694Z,3.00
2023-05-09T00:32:00.744Z,3.00
2023-05-09T00:33:00.723Z,3.00
2023-05-09T00:34:00.699Z,3.00
2023-05-09T00:35:00.682Z,3.00
2023-05-09T00:36:00.674Z,3.00
2023-05-09T00:37:00.673Z,3.00
2023-05-09T00:38:00.694Z,3.00
2023-05-09T00:39:00.724Z,3.00
2023-05-09T00:40:00.859Z,3.00
2023-05-09T00:41:00.675Z,3.00
2023-05-09T00:42:00.691Z,3.00
2023-05-09T00:43:00.703Z,3.00
2023-05-09T00:44:00.676Z,3.00
2023-05-09T00:45:00.841Z,3.00
2023-05-09T00:46:00.809Z,3.00
2023-05-09T00:47:00.734Z,3.00
2023-05-09T00:48:00.704Z,3.00
2023-05-09T00:49:00.981Z,3.00
2023-05-09T00:50:01.058Z,3.00
2023-05-09T00:51:00.737Z,3.00
2023-05-09T00:52:01.556Z,3.00
2023-05-09T00:53:00.733Z,3.00
2023-05-09T00:54:00.833Z,3.00
2023-05-09T00:55:00.989Z,3.00
2023-05-09T00:56:00.970Z,3.00
2023-05-09T00:57:00.739Z,3.00
2023-05-09T00:58:01.862Z,3.00
2023-05-09T00:59:00.678Z,1.80
2023-05-09T01:00:00.844Z,1.80
2023-05-09T01:01:00.706Z,1.80
2023-05-09T01:02:00.678Z,1.80
2023-05-09T01:03:00.753Z,1.80
2023-05-09T01:04:00.718Z,1.80
2023-05-09T01:10:10.573Z,1.80
2023-05-09T01:11:05.481Z,1.80
2023-05-09T01:12:10.587Z,1.80
2023-05-09T01:13:00.694Z,1.80
2023-05-09T01:14:00.654Z,1.80
2023-05-09T01:15:03.991Z,1.80
2023-05-09T01:16:09.780Z,1.80
2023-05-09T01:17:03.613Z,1.80
2023-05-09T01:18:10.622Z,1.80
2023-05-09T01:19:10.594Z,1.80
2023-05-09T01:20:09.464Z,1.80
2023-05-09T01:21:03.105Z,1.80
2023-05-09T01:22:03.212Z,1.80
2023-05-09T01:23:10.595Z,1.80
2023-05-09T01:24:10.596Z,1.80
2023-05-09T01:25:10.649Z,1.80
2023-05-09T01:26:08.015Z,1.80
2023-05-09T01:27:10.608Z,1.80
2023-05-09T01:28:10.666Z,1.80
2023-05-09T01:29:10.610Z,3.30
2023-05-09T01:30:02.285Z,3.30
2023-05-09T01:31:01.952Z,3.30
2023-05-09T01:32:03.605Z,3.30
2023-05-09T01:33:04.194Z,3.30
2023-05-09T01:34:01.488Z,3.30
2023-05-09T01:35:01.928Z,3.30
2023-05-09T01:36:03.297Z,3.30
2023-05-09T01:37:02.905Z,3.30
2023-05-09T01:38:03.652Z,3.30
2023-05-09T01:39:01.131Z,3.30
2023-05-09T01:40:06.946Z,3.30
2023-05-09T01:41:01.645Z,3.30
2023-05-09T01:42:02.361Z,3.30
2023-05-09T01:43:04.482Z,3.30
2023-05-09T01:44:02.853Z,3.30
2023-05-09T01:45:01.629Z,3.30
2023-05-09T01:46:01.041Z,3.30
2023-05-09T01:47:01.844Z,3.30
2023-05-09T01:48:01.355Z,3.30
2023-05-09T01:49:01.852Z,3.30
2023-05-09T01:55:01.194Z,3.30
2023-05-09T01:56:02.255Z,3.30
2023-05-09T01:57:01.919Z,3.30
2023-05-09T01:58:02.420Z,3.30
2023-05-09T01:59:01.299Z,3.50
2023-05-09T02:00:01.844Z,3.50
2023-05-09T02:01:01.251Z,3.50
2023-05-09T02:02:02.611Z,3.50
2023-05-09T02:03:01.439Z,3.50
2023-05-09T02:04:02.361Z,3.50
2023-05-09T02:05:00.986Z,3.50
2023-05-09T02:06:02.329Z,3.50
2023-05-09T02:07:01.466Z,3.50
2023-05-09T02:08:00.731Z,3.50
2023-05-09T02:09:01.229Z,3.50
2023-05-09T02:10:01.354Z,3.50
2023-05-09T02:11:00.704Z,3.50
2023-05-09T02:12:00.723Z,3.50
2023-05-09T02:13:00.776Z,3.50
2023-05-09T02:14:00.704Z,3.50
2023-05-09T02:15:00.687Z,3.50
2023-05-09T02:16:01.089Z,3.50
2023-05-09T02:17:00.862Z,3.50
2023-05-09T02:18:00.813Z,3.50
2023-05-09T02:19:00.666Z,3.50
2023-05-09T02:20:00.686Z,3.50
2023-05-09T02:21:01.170Z,3.50
2023-05-09T02:22:01.608Z,3.50
2023-05-09T02:23:01.037Z,3.50
2023-05-09T02:24:00.874Z,3.50
2023-05-09T02:25:01.576Z,3.50
2023-05-09T02:26:01.156Z,3.50
2023-05-09T02:27:02.401Z,3.50
2023-05-09T02:28:01.378Z,3.50
2023-05-09T02:29:02.134Z,3.70
2023-05-09T02:30:02.982Z,3.70
2023-05-09T02:31:02.073Z,3.70
2023-05-09T02:32:01.929Z,3.70
2023-05-09T02:33:02.424Z,3.70
2023-05-09T02:34:01.480Z,3.70
2023-05-09T02:35:01.201Z,3.70
2023-05-09T02:36:01.403Z,3.70
2023-05-09T02:37:00.754Z,3.70
2023-05-09T02:38:00.919Z,3.70
2023-05-09T02:39:00.901Z,3.70
2023-05-09T02:40:00.833Z,3.70
2023-05-09T02:41:00.712Z,3.70
2023-05-09T02:42:09.264Z,3.70
2023-05-09T02:43:00.678Z,3.70
2023-05-09T02:44:00.675Z,3.70
2023-05-09T02:45:00.707Z,3.70
2023-05-09T02:46:00.705Z,3.70
2023-05-09T02:47:01.443Z,3.70
2023-05-09T02:48:00.741Z,3.70
2023-05-09T02:49:00.665Z,3.70
2023-05-09T02:50:00.706Z,3.70
2023-05-09T02:51:00.941Z,3.70
2023-05-09T02:52:00.709Z,3.70
2023-05-09T02:53:00.677Z,3.70
2023-05-09T02:54:00.696Z,3.70
2023-05-09T02:55:01.025Z,3.70
2023-05-09T02:56:00.713Z,3.70
2023-05-09T02:57:00.698Z,3.70
2023-05-09T02:58:12.782Z,3.70
2023-05-09T02:59:00.668Z,4.10
2023-05-09T03:00:00.755Z,4.10
2023-05-09T03:01:00.682Z,4.10
2023-05-09T03:02:00.781Z,4.10
2023-05-09T03:03:01.208Z,4.10
2023-05-09T03:04:00.712Z,4.10
2023-05-09T03:05:00.861Z,4.10
2023-05-09T03:06:00.689Z,4.10
2023-05-09T03:07:00.706Z,4.10
2023-05-09T03:08:00.723Z,4.10
2023-05-09T03:09:00.749Z,4.10
2023-05-09T03:10:00.683Z,4.10
2023-05-09T03:11:00.711Z,4.10
2023-05-09T03:12:00.684Z,4.10
2023-05-09T03:13:00.699Z,4.10
2023-05-09T03:14:00.665Z,4.10
2023-05-09T03:15:00.677Z,4.10
2023-05-09T03:16:00.709Z,4.10
2023-05-09T03:17:00.809Z,4.10
2023-05-09T03:18:00.721Z,4.10
2023-05-09T03:19:00.790Z,4.10
2023-05-09T03:20:03.919Z,4.10
2023-05-09T03:21:00.665Z,4.10
2023-05-09T03:22:00.762Z,4.10
2023-05-09T03:23:00.674Z,4.10
2023-05-09T03:24:00.693Z,4.10
2023-05-09T03:25:00.910Z,4.10
2023-05-09T03:26:00.675Z,4.10
2023-05-09T03:27:00.683Z,4.10
2023-05-09T03:28:00.700Z,4.10
2023-05-09T03:29:01.102Z,4.40
2023-05-09T03:30:00.687Z,4.40
2023-05-09T03:31:00.748Z,4.40
2023-05-09T03:32:00.704Z,4.40
2023-05-09T03:33:00.747Z,4.40
2023-05-09T03:34:00.731Z,4.40
2023-05-09T03:35:00.708Z,4.40
2023-05-09T03:36:00.680Z,4.40
2023-05-09T03:37:00.685Z,4.40
2023-05-09T03:38:00.685Z,4.40
2023-05-09T03:39:00.665Z,4.40
2023-05-09T03:40:00.823Z,4.40
2023-05-09T03:41:00.746Z,4.40
2023-05-09T03:42:00.698Z,4.40
2023-05-09T03:43:00.676Z,4.40
2023-05-09T03:44:00.961Z,4.40
2023-05-09T03:45:00.682Z,4.40
2023-05-09T03:46:00.668Z,4.40
2023-05-09T03:47:00.787Z,4.40
2023-05-09T03:48:00.814Z,4.40
2023-05-09T03:49:00.704Z,4.40
2023-05-09T03:50:00.781Z,4.40
2023-05-09T03:51:00.688Z,4.40
2023-05-09T03:52:01.794Z,4.40
2023-05-09T03:53:01.049Z,4.40
2023-05-09T03:54:00.680Z,4.40
2023-05-09T03:55:00.694Z,4.40
2023-05-09T03:56:00.677Z,4.40
2023-05-09T03:57:00.686Z,4.40
2023-05-09T03:58:00.678Z,4.40
2023-05-09T03:59:00.677Z,4.80
2023-05-09T04:00:01.195Z,4.80
2023-05-09T04:01:01.126Z,4.80
2023-05-09T04:02:00.734Z,4.80
2023-05-09T04:03:00.811Z,4.80
2023-05-09T04:04:00.712Z,4.80
2023-05-09T04:05:01.009Z,4.80
2023-05-09T04:06:00.736Z,4.80
2023-05-09T04:07:00.686Z,4.80
2023-05-09T04:08:00.833Z,4.80
2023-05-09T04:09:00.693Z,4.80
2023-05-09T04:10:00.721Z,4.80
2023-05-09T04:11:00.689Z,4.80
2023-05-09T04:12:00.692Z,4.80
2023-05-09T04:13:00.729Z,4.80
2023-05-09T04:14:00.670Z,4.80
2023-05-09T04:15:00.704Z,4.80
2023-05-09T04:16:01.076Z,4.80
2023-05-09T04:17:00.800Z,4.80
2023-05-09T04:18:00.763Z,4.80
2023-05-09T04:19:00.676Z,4.80
2023-05-09T04:20:00.879Z,4.80
2023-05-09T04:21:00.675Z,4.80
2023-05-09T04:22:00.824Z,4.80
2023-05-09T04:23:00.683Z,4.80
2023-05-09T04:24:00.730Z,4.80
2023-05-09T04:25:00.783Z,4.80
2023-05-09T04:26:00.680Z,4.80
2023-05-09T04:27:00.700Z,4.80
2023-05-09T04:28:00.693Z,4.80
2023-05-09T04:29:00.684Z,6.70
2023-05-09T04:30:00.699Z,6.70
2023-05-09T04:31:00.851Z,6.70
2023-05-09T04:32:01.378Z,6.70
2023-05-09T04:33:00.782Z,6.70
2023-05-09T04:34:00.681Z,6.70
2023-05-09T04:35:00.752Z,6.70
2023-05-09T04:36:00.677Z,6.70
2023-05-09T04:37:00.703Z,6.70
2023-05-09T04:38:00.664Z,6.70
2023-05-09T04:39:00.790Z,6.70
2023-05-09T04:40:00.773Z,6.70
2023-05-09T04:41:00.680Z,6.70
2023-05-09T04:42:00.679Z,6.70
2023-05-09T04:43:00.696Z,6.70
2023-05-09T04:44:00.714Z,6.70
2023-05-09T04:45:00.748Z,6.70
2023-05-09T04:46:00.734Z,6.70
2023-05-09T04:47:00.696Z,6.70
2023-05-09T04:48:00.813Z,6.70
2023-05-09T04:49:00.711Z,6.70
2023-05-09T04:50:00.692Z,6.70
2023-05-09T04:51:00.967Z,6.70
2023-05-09T04:52:00.683Z,6.70
2023-05-09T04:53:00.719Z,6.70
2023-05-09T04:54:00.707Z,6.70
2023-05-09T04:55:00.921Z,6.70
2023-05-09T04:56:00.700Z,6.70
2023-05-09T04:57:13.799Z,6.70
2023-05-09T04:58:00.679Z,6.70
2023-05-09T04:59:00.701Z,9.30
2023-05-09T05:00:00.696Z,9.30
2023-05-09T05:01:00.754Z,9.30
2023-05-09T05:02:01.029Z,9.30
2023-05-09T05:03:00.753Z,9.30
2023-05-09T05:04:00.672Z,9.30
2023-05-09T05:05:10.835Z,9.30
2023-05-09T05:06:00.673Z,9.30
2023-05-09T05:07:00.688Z,9.30
2023-05-09T05:08:00.758Z,9.30
2023-05-09T05:09:00.677Z,9.30
2023-05-09T05:10:00.702Z,9.30
2023-05-09T05:11:00.672Z,9.30
2023-05-09T05:12:02.976Z,9.30
2023-05-09T05:13:00.897Z,9.30
2023-05-09T05:14:00.677Z,9.30
2023-05-09T05:15:00.737Z,9.30
2023-05-09T05:16:00.737Z,9.30
2023-05-09T05:17:00.698Z,9.30
2023-05-09T05:18:00.695Z,9.30
2023-05-09T05:19:00.728Z,9.30
2023-05-09T05:20:00.703Z,9.30
2023-05-09T05:21:00.689Z,9.30
2023-05-09T05:22:00.680Z,9.30
2023-05-09T05:23:00.754Z,9.30
2023-05-09T05:24:00.672Z,9.30
2023-05-09T05:25:00.786Z,9.30
2023-05-09T05:26:00.682Z,9.30
2023-05-09T05:27:00.698Z,9.30
2023-05-09T05:28:00.759Z,9.30
2023-05-09T05:29:00.698Z,7.80
2023-05-09T05:30:00.873Z,7.80
2023-05-09T05:31:00.700Z,7.80
2023-05-09T05:32:00.773Z,7.80
2023-05-09T05:33:00.773Z,7.80
2023-05-09T05:34:00.712Z,7.80
2023-05-09T05:35:00.682Z,7.80
2023-05-09T05:36:00.696Z,7.80
2023-05-09T05:37:00.659Z,7.80
2023-05-09T05:38:00.677Z,7.80
2023-05-09T05:39:00.682Z,7.80
2023-05-09T05:40:01.783Z,7.80
2023-05-09T05:41:00.665Z,7.80
2023-05-09T05:42:00.741Z,7.80
2023-05-09T05:43:00.673Z,7.80
2023-05-09T05:44:00.675Z,7.80
2023-05-09T05:45:00.960Z,7.80
2023-05-09T05:46:00.698Z,7.80
2023-05-09T05:47:00.686Z,7.80
2023-05-09T05:48:00.698Z,7.80
2023-05-09T05:49:00.670Z,7.80
2023-05-09T05:50:01.371Z,7.80
2023-05-09T05:51:00.715Z,7.80
2023-05-09T05:52:00.678Z,7.80
2023-05-09T05:53:00.765Z,7.80
2023-05-09T05:54:00.662Z,7.80
2023-05-09T05:55:00.693Z,7.80
2023-05-09T05:56:00.672Z,7.80
2023-05-09T05:57:00.677Z,7.80
2023-05-09T05:58:00.692Z,7.80
2023-05-09T05:59:01.568Z,10.40
2023-05-09T06:00:00.696Z,10.40
2023-05-09T06:01:00.681Z,10.40
2023-05-09T06:02:00.744Z,10.40
2023-05-09T06:03:00.892Z,10.40
2023-05-09T06:04:00.839Z,10.40
2023-05-09T06:05:00.735Z,10.40
2023-05-09T06:06:00.706Z,10.40
2023-05-09T06:07:00.713Z,10.40
2023-05-09T06:08:00.712Z,10.40
2023-05-09T06:09:00.681Z,10.40
2023-05-09T06:10:00.673Z,10.40
2023-05-09T06:11:00.799Z,10.40
2023-05-09T06:12:00.683Z,10.40
2023-05-09T06:13:00.821Z,10.40
2023-05-09T06:14:00.668Z,10.40
2023-05-09T06:15:00.994Z,10.40
2023-05-09T06:16:15.185Z,10.40
2023-05-09T06:17:00.709Z,10.40
2023-05-09T06:18:00.784Z,10.40
2023-05-09T06:19:00.685Z,10.40
2023-05-09T06:20:00.741Z,10.40
2023-05-09T06:21:00.675Z,10.40
2023-05-09T06:22:00.675Z,10.40
2023-05-09T06:23:00.672Z,10.40
2023-05-09T06:25:00.667Z,10.40
2023-05-09T06:26:00.679Z,10.40
2023-05-09T06:27:00.755Z,10.40
2023-05-09T06:28:00.698Z,10.40
2023-05-09T06:29:00.831Z,10.20
2023-05-09T06:30:04.176Z,10.20
2023-05-09T06:31:00.758Z,10.20
2023-05-09T06:32:00.711Z,10.20
2023-05-09T06:33:00.711Z,10.20
2023-05-09T06:34:00.662Z,10.20
2023-05-09T06:35:00.668Z,10.20
2023-05-09T06:36:00.690Z,10.20
2023-05-09T06:37:00.669Z,10.20
2023-05-09T06:38:00.720Z,10.20
2023-05-09T06:39:00.749Z,10.20
2023-05-09T06:40:00.690Z,10.20
2023-05-09T06:41:00.664Z,10.20
2023-05-09T06:42:00.666Z,10.20
2023-05-09T06:43:00.676Z,10.20
2023-05-09T06:44:00.746Z,10.20
2023-05-09T06:45:00.701Z,10.20
2023-05-09T06:46:01.249Z,10.20
2023-05-09T06:47:00.666Z,10.20
2023-05-09T06:48:00.715Z,10.20
2023-05-09T06:49:00.732Z,10.20
2023-05-09T06:50:00.745Z,10.20
2023-05-09T06:51:00.676Z,10.20
2023-05-09T06:52:00.699Z,10.20
2023-05-09T06:53:00.683Z,10.20
2023-05-09T06:54:00.689Z,10.20
2023-05-09T06:55:00.712Z,10.20
2023-05-09T06:56:00.706Z,10.20
2023-05-09T06:57:00.783Z,10.20
2023-05-09T06:58:00.726Z,10.20
2023-05-09T06:59:00.751Z,10.50
2023-05-09T07:00:00.780Z,10.50
2023-05-09T07:01:00.733Z,10.50
2023-05-09T07:02:00.691Z,10.50
2023-05-09T07:03:00.740Z,10.50
2023-05-09T07:04:00.681Z,10.50
2023-05-09T07:05:00.728Z,10.50
2023-05-09T07:06:00.676Z,10.50
2023-05-09T07:07:00.681Z,10.50
2023-05-09T07:08:00.679Z,10.50
2023-05-09T07:09:00.688Z,10.50
2023-05-09T07:10:10.437Z,10.50
2023-05-09T07:11:00.682Z,10.50
2023-05-09T07:12:00.689Z,10.50
2023-05-09T07:13:00.807Z,10.50
2023-05-09T07:14:00.893Z,10.50
2023-05-09T07:15:00.721Z,10.50
2023-05-09T07:16:00.849Z,10.50
2023-05-09T07:17:14.245Z,10.50
2023-05-09T07:18:00.724Z,10.50
2023-05-09T07:19:00.668Z,10.50
2023-05-09T07:20:00.683Z,10.50
2023-05-09T07:21:00.680Z,10.50
2023-05-09T07:22:00.677Z,10.50
2023-05-09T07:23:02.133Z,10.50
2023-05-09T07:24:00.682Z,10.50
2023-05-09T07:25:00.719Z,10.50
2023-05-09T07:26:00.694Z,10.50
2023-05-09T07:27:02.350Z,10.50
2023-05-09T07:28:00.673Z,10.50
2023-05-09T07:29:00.763Z,9.70
2023-05-09T07:30:01.104Z,9.70
2023-05-09T07:31:00.699Z,9.70
2023-05-09T07:32:00.736Z,9.70
2023-05-09T07:33:00.752Z,9.70
2023-05-09T07:34:00.692Z,9.70
2023-05-09T07:35:01.005Z,9.70
2023-05-09T07:36:00.797Z,9.70
2023-05-09T07:37:00.688Z,9.70
2023-05-09T07:38:00.689Z,9.70
2023-05-09T07:39:00.713Z,9.70
2023-05-09T07:40:00.719Z,9.70
2023-05-09T07:41:00.674Z,9.70
2023-05-09T07:42:00.780Z,9.70
2023-05-09T07:43:00.884Z,9.70
2023-05-09T07:44:00.695Z,9.70
2023-05-09T07:45:00.752Z,9.70
2023-05-09T07:46:00.712Z,9.70
2023-05-09T07:47:00.683Z,9.70
2023-05-09T07:48:00.755Z,9.70
2023-05-09T07:49:00.667Z,9.70
2023-05-09T07:50:00.839Z,9.70
2023-05-09T07:51:00.727Z,9.70
2023-05-09T07:52:00.705Z,9.70
2023-05-09T07:53:00.676Z,9.70
2023-05-09T07:54:00.677Z,9.70
2023-05-09T07:55:00.668Z,9.70
2023-05-09T07:56:00.791Z,9.70
2023-05-09T07:57:00.737Z,9.70
2023-05-09T07:58:00.663Z,9.70
2023-05-09T07:59:00.989Z,7.50
2023-05-09T08:00:00.702Z,7.50
2023-05-09T08:01:00.712Z,7.50
2023-05-09T08:02:00.815Z,7.50
2023-05-09T08:03:00.955Z,7.50
2023-05-09T08:04:00.864Z,7.50
2023-05-09T08:05:00.816Z,7.50
2023-05-09T08:06:00.768Z,7.50
2023-05-09T08:07:00.681Z,7.50
2023-05-09T08:08:00.728Z,7.50
2023-05-09T08:09:00.716Z,7.50
2023-05-09T08:10:00.688Z,7.50
2023-05-09T08:11:00.700Z,7.50
2023-05-09T08:12:00.688Z,7.50
2023-05-09T08:13:00.737Z,7.50
2023-05-09T08:14:00.898Z,7.50
2023-05-09T08:15:00.722Z,7.50
2023-05-09T08:16:00.889Z,7.50
2023-05-09T08:17:00.672Z,7.50
2023-05-09T08:18:00.712Z,7.50
2023-05-09T08:19:00.729Z,7.50
2023-05-09T08:20:00.743Z,7.50
2023-05-09T08:21:00.692Z,7.50
2023-05-09T08:22:00.688Z,7.50
2023-05-09T08:23:00.687Z,7.50
2023-05-09T08:24:00.670Z,7.50
2023-05-09T08:25:00.699Z,7.50
2023-05-09T08:26:00.746Z,7.50
2023-05-09T08:27:00.693Z,7.50
2023-05-09T08:28:00.670Z,7.50
2023-05-09T08:29:00.698Z,10.10
2023-05-09T08:30:00.710Z,10.10
2023-05-09T08:31:00.707Z,10.10
2023-05-09T08:32:00.693Z,10.10
2023-05-09T08:33:00.753Z,10.10
2023-05-09T08:34:00.681Z,10.10
2023-05-09T08:35:00.688Z,10.10
2023-05-09T08:36:00.918Z,10.10
2023-05-09T08:37:00.947Z,10.10
2023-05-09T08:38:00.689Z,10.10
2023-05-09T08:39:00.755Z,10.10
2023-05-09T08:40:01.071Z,10.10
2023-05-09T08:41:01.148Z,10.10
2023-05-09T08:42:01.038Z,10.10
2023-05-09T08:43:01.438Z,10.10
2023-05-09T08:44:00.914Z,10.10
2023-05-09T08:45:02.584Z,10.10
2023-05-09T08:46:04.565Z,10.10
2023-05-09T08:47:01.925Z,10.10
2023-05-09T08:48:02.664Z,10.10
2023-05-09T08:49:00.939Z,10.10
2023-05-09T08:50:01.704Z,10.10
2023-05-09T08:51:00.880Z,10.10
2023-05-09T08:52:01.140Z,10.10
2023-05-09T08:53:00.792Z,10.10
2023-05-09T08:54:01.255Z,10.10
2023-05-09T08:55:01.087Z,10.10
2023-05-09T08:56:02.333Z,10.10
2023-05-09T08:57:00.785Z,10.10
2023-05-09T08:58:01.711Z,10.10
2023-05-09T08:59:00.720Z,8.30
2023-05-09T09:00:00.862Z,8.30
2023-05-09T09:01:01.405Z,8.30
2023-05-09T09:02:00.782Z,8.30
2023-05-09T09:03:01.960Z,8.30
2023-05-09T09:04:02.030Z,8.30
2023-05-09T09:05:00.738Z,8.30
2023-05-09T09:06:00.909Z,8.30
2023-05-09T09:07:02.973Z,8.30
2023-05-09T09:08:02.095Z,8.30
2023-05-09T09:09:01.168Z,8.30
2023-05-09T09:10:01.918Z,8.30
2023-05-09T09:11:00.859Z,8.30
2023-05-09T09:12:01.796Z,8.30
2023-05-09T09:13:03.197Z,8.30
2023-05-09T09:14:03.776Z,8.30
2023-05-09T09:15:03.250Z,8.30
2023-05-09T09:16:01.007Z,8.30
2023-05-09T09:17:00.821Z,8.30
2023-05-09T09:18:06.186Z,8.30
2023-05-09T09:19:01.690Z,8.30
2023-05-09T09:20:02.389Z,8.30
2023-05-09T09:21:05.057Z,8.30
2023-05-09T09:22:02.589Z,8.30
2023-05-09T09:23:02.451Z,8.30
2023-05-09T09:24:01.801Z,8.30
2023-05-09T09:25:01.180Z,8.30
2023-05-09T09:26:01.274Z,8.30
2023-05-09T09:27:04.471Z,8.30
2023-05-09T09:28:00.679Z,8.30
2023-05-09T09:29:00.744Z,8.80
2023-05-09T09:30:09.240Z,8.80
2023-05-09T09:31:00.872Z,8.80
2023-05-09T09:32:01.691Z,8.80
2023-05-09T09:33:00.805Z,8.80
2023-05-09T09:34:01.671Z,8.80
2023-05-09T09:35:04.290Z,8.80
2023-05-09T09:36:00.696Z,8.80
2023-05-09T09:37:00.714Z,8.80
2023-05-09T09:38:00.690Z,8.80
2023-05-09T09:39:02.059Z,8.80
2023-05-09T09:40:00.784Z,8.80
2023-05-09T09:41:00.679Z,8.80
2023-05-09T09:42:10.607Z,8.80
2023-05-09T09:43:00.677Z,8.80
2023-05-09T09:44:10.614Z,8.80
2023-05-09T09:45:01.779Z,8.80
2023-05-09T09:46:01.730Z,8.80
2023-05-09T09:47:00.685Z,8.80
2023-05-09T09:48:04.667Z,8.80
2023-05-09T09:49:00.680Z,8.80
2023-05-09T09:50:08.646Z,8.80
2023-05-09T09:51:08.901Z,8.80
2023-05-09T09:52:00.680Z,8.80
2023-05-09T09:53:00.693Z,8.80
2023-05-09T09:54:01.196Z,8.80
2023-05-09T09:55:00.725Z,8.80
2023-05-09T09:56:00.708Z,8.80
2023-05-09T09:57:00.682Z,8.80
2023-05-09T09:58:00.672Z,8.80
2023-05-09T09:59:10.610Z,8.20
2023-05-09T10:00:00.702Z,8.20
2023-05-09T10:01:04.810Z,8.20
2023-05-09T10:02:04.212Z,8.20
2023-05-09T10:03:00.803Z,8.20
2023-05-09T10:04:02.137Z,8.20
2023-05-09T10:05:08.015Z,8.20
2023-05-09T10:06:00.906Z,8.20
2023-05-09T10:07:01.616Z,8.20
2023-05-09T10:08:02.436Z,8.20
2023-05-09T10:09:00.696Z,8.20
2023-05-09T10:10:01.654Z,8.20
2023-05-09T10:11:00.694Z,8.20
2023-05-09T10:12:01.537Z,8.20
2023-05-09T10:13:02.401Z,8.20
2023-05-09T10:14:00.716Z,8.20
2023-05-09T10:15:02.675Z,8.20
2023-05-09T10:16:01.092Z,8.20
2023-05-09T10:17:01.698Z,8.20
2023-05-09T10:18:00.854Z,8.20
2023-05-09T10:19:01.039Z,8.20
2023-05-09T10:20:01.900Z,8.20
2023-05-09T10:21:00.958Z,8.20
2023-05-09T10:22:03.848Z,8.20
2023-05-09T10:23:01.229Z,8.20
2023-05-09T10:24:02.025Z,8.20
2023-05-09T10:25:03.794Z,8.20
2023-05-09T10:26:00.660Z,8.20
2023-05-09T10:27:03.012Z,8.20
2023-05-09T10:28:04.340Z,8.20
2023-05-09T10:29:05.376Z,7.60
2023-05-09T10:30:04.171Z,7.60
2023-05-09T10:31:10.625Z,7.60
2023-05-09T10:32:02.927Z,7.60
2023-05-09T10:33:03.192Z,7.60
2023-05-09T10:34:04.285Z,7.60
2023-05-09T10:35:04.101Z,7.60
2023-05-09T10:36:01.860Z,7.60
2023-05-09T10:37:01.112Z,7.60
2023-05-09T10:38:01.187Z,7.60
2023-05-09T10:39:01.021Z,7.60
2023-05-09T10:40:01.970Z,7.60
2023-05-09T10:41:00.953Z,7.60
2023-05-09T10:42:01.093Z,7.60
2023-05-09T10:43:00.691Z,7.60
2023-05-09T10:44:00.822Z,7.60
2023-05-09T10:45:00.768Z,7.60
2023-05-09T10:46:01.945Z,7.60
2023-05-09T10:47:01.471Z,7.60
2023-05-09T10:48:01.292Z,7.60
2023-05-09T10:49:00.831Z,7.60
2023-05-09T10:50:00.948Z,7.60
2023-05-09T10:51:01.647Z,7.60
2023-05-09T10:52:00.665Z,7.60
2023-05-09T10:53:03.916Z,7.60
2023-05-09T10:54:00.672Z,7.60
2023-05-09T10:55:02.222Z,7.60
2023-05-09T10:56:01.494Z,7.60
2023-05-09T10:57:00.684Z,7.60
2023-05-09T10:58:10.591Z,7.60
2023-05-09T10:59:00.846Z,7.50
2023-05-09T11:00:00.840Z,7.50
2023-05-09T11:01:01.587Z,7.50
2023-05-09T11:02:01.368Z,7.50
2023-05-09T11:03:08.314Z,7.50
2023-05-09T11:04:01.022Z,7.50
2023-05-09T11:05:10.627Z,7.50
2023-05-09T11:06:00.681Z,7.50
2023-05-09T11:07:00.707Z,7.50
2023-05-09T11:08:10.618Z,7.50
2023-05-09T11:09:10.593Z,7.50
2023-05-09T11:10:08.679Z,7.50
2023-05-09T11:11:10.607Z,7.50
2023-05-09T11:12:03.948Z,7.50
2023-05-09T11:13:00.757Z,7.50
2023-05-09T11:14:00.686Z,7.50
2023-05-09T11:15:05.004Z,7.50
2023-05-09T11:16:00.682Z,7.50
2023-05-09T11:17:01.804Z,7.50
2023-05-09T11:18:06.584Z,7.50
2023-05-09T11:19:00.670Z,7.50
2023-05-09T11:20:03.092Z,7.50
2023-05-09T11:21:07.026Z,7.50
2023-05-09T11:22:01.040Z,7.50
2023-05-09T11:23:03.100Z,7.50
2023-05-09T11:24:10.598Z,7.50
2023-05-09T11:25:02.479Z,7.50
2023-05-09T11:26:07.958Z,7.50
2023-05-09T11:27:00.713Z,7.50
2023-05-09T11:28:00.928Z,7.50
2023-05-09T11:29:05.075Z,5.80
2023-05-09T11:30:03.458Z,5.80
2023-05-09T11:31:10.730Z,5.80
2023-05-09T11:32:04.564Z,5.80
2023-05-09T11:33:00.710Z,5.80
2023-05-09T11:34:00.992Z,5.80
2023-05-09T11:35:10.687Z,5.80
2023-05-09T11:36:10.721Z,5.80
2023-05-09T11:37:06.394Z,5.80
2023-05-09T11:38:02.397Z,5.80
2023-05-09T11:39:00.683Z,5.80
2023-05-09T11:40:01.295Z,5.80
2023-05-09T11:41:00.713Z,5.80
2023-05-09T11:42:00.829Z,5.80
2023-05-09T11:43:00.950Z,5.80
2023-05-09T11:44:00.693Z,5.80
2023-05-09T11:45:02.501Z,5.80
2023-05-09T11:46:01.258Z,5.80
2023-05-09T11:47:00.681Z,5.80
2023-05-09T11:48:00.785Z,5.80
2023-05-09T11:49:00.683Z,5.80
2023-05-09T11:50:00.699Z,5.80
2023-05-09T11:51:01.446Z,5.80
2023-05-09T11:52:00.681Z,5.80
2023-05-09T11:53:00.816Z,5.80
2023-05-09T11:54:00.801Z,5.80
2023-05-09T11:55:00.681Z,5.80
2023-05-09T11:56:01.823Z,5.80
2023-05-09T11:57:00.686Z,5.80
2023-05-09T11:58:00.742Z,5.80
2023-05-09T11:59:00.863Z,8.60
2023-05-09T12:00:00.845Z,8.60
2023-05-09T12:01:00.687Z,8.60
2023-05-09T12:02:03.008Z,8.60
2023-05-09T12:03:03.951Z,8.60
2023-05-09T12:04:01.000Z,8.60
2023-05-09T12:05:10.658Z,8.60
2023-05-09T12:06:00.719Z,8.60
2023-05-09T12:07:00.742Z,8.60
2023-05-09T12:08:02.229Z,8.60
2023-05-09T12:09:00.692Z,8.60
2023-05-09T12:10:00.779Z,8.60
2023-05-09T12:11:08.263Z,8.60
2023-05-09T12:12:00.697Z,8.60
2023-05-09T12:13:00.878Z,8.60
2023-05-09T12:14:00.683Z,8.60
2023-05-09T12:15:01.332Z,8.60
2023-05-09T12:16:00.973Z,8.60
2023-05-09T12:17:00.748Z,8.60
2023-05-09T12:18:02.232Z,8.60
2023-05-09T12:19:00.683Z,8.60
2023-05-09T12:20:00.969Z,8.60
2023-05-09T12:21:00.736Z,8.60
2023-05-09T12:22:01.454Z,8.60
2023-05-09T12:23:02.091Z,8.60
2023-05-09T12:24:00.678Z,8.60
2023-05-09T12:25:03.480Z,8.60
2023-05-09T12:26:00.690Z,8.60
2023-05-09T12:27:01.087Z,8.60
2023-05-09T12:28:00.688Z,8.60
2023-05-09T12:29:00.780Z,7.70
2023-05-09T12:30:00.906Z,7.70
2023-05-09T12:31:01.256Z,7.70
2023-05-09T12:32:01.213Z,7.70
2023-05-09T12:33:00.811Z,7.70
2023-05-09T12:34:00.772Z,7.70
2023-05-09T12:35:00.695Z,7.70
2023-05-09T12:36:04.082Z,7.70
2023-05-09T12:37:00.707Z,7.70
2023-05-09T12:38:00.739Z,7.70
2023-05-09T12:39:00.820Z,7.70
2023-05-09T12:40:02.332Z,7.70
2023-05-09T12:41:05.348Z,7.70
2023-05-09T12:42:02.304Z,7.70
2023-05-09T12:43:00.765Z,7.70
2023-05-09T12:44:00.710Z,7.70
2023-05-09T12:45:01.340Z,7.70
2023-05-09T12:46:01.445Z,7.70
2023-05-09T12:47:01.719Z,7.70
2023-05-09T12:48:00.725Z,7.70
2023-05-09T12:49:00.681Z,7.70
2023-05-09T12:50:01.367Z,7.70
2023-05-09T12:51:02.110Z,7.70
2023-05-09T12:52:02.953Z,7.70
2023-05-09T12:53:03.182Z,7.70
2023-05-09T12:54:02.392Z,7.70
2023-05-09T12:55:09.364Z,7.70
2023-05-09T12:56:01.804Z,7.70
2023-05-09T12:57:00.684Z,7.70
2023-05-09T12:58:01.435Z,7.70
2023-05-09T12:59:00.688Z,7.50
2023-05-09T13:00:02.421Z,7.50
2023-05-09T13:01:02.783Z,7.50
2023-05-09T13:02:00.839Z,7.50
2023-05-09T13:03:00.931Z,7.50
2023-05-09T13:04:02.063Z,7.50
2023-05-09T13:05:08.906Z,7.50
2023-05-09T13:06:00.691Z,7.50
2023-05-09T13:07:06.623Z,7.50
2023-05-09T13:08:00.768Z,7.50
2023-05-09T13:09:01.939Z,7.50
2023-05-09T13:10:00.675Z,7.50
2023-05-09T13:11:14.760Z,7.50
2023-05-09T13:12:01.475Z,7.50
2023-05-09T13:13:02.984Z,7.50
2023-05-09T13:14:01.857Z,7.50
2023-05-09T13:15:00.939Z,7.50
2023-05-09T13:16:02.473Z,7.50
2023-05-09T13:17:01.004Z,7.50
2023-05-09T13:18:00.756Z,7.50
2023-05-09T13:19:00.699Z,7.50
2023-05-09T13:20:00.773Z,7.50
2023-05-09T13:21:00.714Z,7.50
2023-05-09T13:22:00.670Z,7.50
2023-05-09T13:23:00.668Z,7.50
2023-05-09T13:24:00.770Z,7.50
2023-05-09T13:25:00.768Z,7.50